• Join FlightAware (Why Join?)
  • Login
  • US Flag 
06:46AM EDT


 

Airport Tracker/Info


-or-


 

Live Flight TrackerFlight Track Log ✈ N31DL ✈ 24-Mar-2014 ✈ KTYS - KFYE

Flight Track Log - Related Links

Times and Time Zones

All times are in EDT time to prevent confusion due to time zone crossing. See the N31DL flight status page for this flight to view local times or setup timezone preferences in your user account.

Time Position Orientation Groundspeed Altitude Reporting Facility
EDT Latitude Longitude Course Direction KTS MPH feet Rate Location/Type
01:59PM 35.8472 -84.3717 261° West 168 193 6,000  Level Atlanta Center
02:00PM 35.8408 -84.4206 261° West 157 181 6,000  Level Atlanta Center
02:01PM 35.8364 -84.4717 264° West 157 181 6,000  Level Atlanta Center
02:02PM 35.8300 -84.5203 261° West 157 181 6,000 -60 Level Atlanta Center
02:03PM 35.8256 -84.5739 264° West 157 181 5,900 -60 Descending Atlanta Center
02:04PM 35.8192 -84.6253 261° West 157 181 5,900  Level Atlanta Center
02:05PM 35.8147 -84.6764 264° West 157 181 6,000  Climbing Atlanta Center
02:06PM 35.8081 -84.7275 261° West 157 181 6,000  Level Atlanta Center
02:07PM 35.8036 -84.7761 264° West 157 181 6,000  Level Atlanta Center
02:08PM 35.7972 -84.8272 261° West 157 181 6,000  Level Atlanta Center
02:09PM 35.7925 -84.8758 263° West 157 181 6,000  Level Atlanta Center
02:10PM 35.7903 -84.9219 267° West 157 181 6,000  Level Atlanta Center
02:12PM 35.7778 -85.0219 261° West 149 171 6,000  Level Memphis Center
02:13PM 35.7717 -85.0739 262° West 150 173 6,000  Level Memphis Center
02:14PM 35.7656 -85.1253 262° West 150 173 6,000  Level Memphis Center
02:15PM 35.7575 -85.1864 261° West 150 173 6,000 -60 Level Memphis Center
02:16PM 35.7511 -85.2392 262° West 150 173 5,900  Descending Memphis Center
02:17PM 35.7453 -85.2908 262° West 151 174 6,000  Climbing Memphis Center
02:18PM 35.7397 -85.3431 263° West 151 174 5,900  Descending Memphis Center
02:19PM 35.7336 -85.3947 262° West 151 174 6,000  Climbing Memphis Center
02:20PM 35.7278 -85.4461 262° West 151 174 5,900 -60 Descending Memphis Center
02:21PM 35.7203 -85.5106 262° West 155 178 5,900  Level Memphis Center
02:22PM 35.7144 -85.5614 262° West 155 178 5,900  Level Memphis Center
02:23PM 35.7092 -85.6128 263° West 154 177 5,900  Level Memphis Center
02:24PM 35.7025 -85.6633 261° West 154 177 5,900  Level Memphis Center
02:25PM 35.6958 -85.7142 261° West 154 177 5,900  Level Memphis Center
02:26PM 35.6897 -85.7647 262° West 153 176 5,900  Level Memphis Center
02:27PM 35.6844 -85.8242 264° West 148 170 5,900  Level Memphis Center
02:29PM 35.6783 -85.8711 261° West 148 170 6,000  Climbing Memphis Center
02:30PM 35.6722 -85.9222 262° West 148 170 6,000  Level Memphis Center
02:31PM 35.6661 -85.9706 261° West 147 169 6,000  Level Memphis Center
02:32PM 35.6603 -86.0314 263° West 147 169 6,000  Level Memphis Center
02:33PM 35.6528 -86.0819 260° West 148 170 6,000  Level Memphis Center
02:34PM 35.6472 -86.1331 262° West 148 170 6,000  Level Memphis Center
02:35PM 35.6408 -86.1844 261° West 148 170 6,000  Level Memphis Center
02:36PM 35.6358 -86.2328 263° West 147 169 6,000  Level Memphis Center
02:37PM 35.6286 -86.2850 260° West 147 169 6,000  Level Memphis Center
02:38PM 35.6222 -86.3356 261° West 148 170 6,000  Level Memphis Center
02:39PM 35.6169 -86.3872 263° West 148 170 6,000  Level Memphis Center
02:40PM 35.6097 -86.4469 262° West 148 170 6,000  Level Memphis Center
02:41PM 35.6031 -86.4978 261° West 148 170 6,000  Level Memphis Center
02:42PM 35.5964 -86.5489 261° West 149 171 6,000  Level Memphis Center
02:43PM 35.5908 -86.5981 262° West 149 171 6,000  Level Memphis Center
02:44PM 35.5844 -86.6497 261° West 148 170 6,000  Level Memphis Center
02:45PM 35.5781 -86.7000 261° West 148 170 6,000  Level Memphis Center
02:46PM 35.5719 -86.7492 261° West 148 170 6,000  Level Memphis Center
02:47PM 35.5644 -86.8078 261° West 148 170 6,000  Level Memphis Center
02:48PM 35.5581 -86.8583 261° West 148 170 6,000  Level Memphis Center
02:49PM 35.5511 -86.9097 261° West 148 170 6,000  Level Memphis Center
02:50PM 35.5458 -86.9600 263° West 148 170 6,000  Level Memphis Center
02:51PM 35.5381 -87.0108 259° West 148 170 6,000  Level Memphis Center
02:52PM 35.5325 -87.0614 262° West 148 170 6,000  Level Memphis Center
02:53PM 35.5261 -87.1119 261° West 148 170 6,000  Level Memphis Center
02:54PM 35.5183 -87.1711 261° West 148 170 6,000  Level Memphis Center
02:55PM 35.5108 -87.2219 260° West 148 170 6,000  Level Memphis Center
02:56PM 35.5042 -87.2742 261° West 149 171 6,000  Level Memphis Center
02:57PM 35.4969 -87.3242 260° West 149 171 6,000  Level Memphis Center
02:59PM 35.4903 -87.3742 261° West 149 171 6,000  Level Memphis Center
03:00PM 35.4842 -87.4261 262° West 149 171 6,000  Level Memphis Center
03:01PM 35.4764 -87.4775 259° West 149 171 6,000 -60 Level Memphis Center
03:02PM 35.4700 -87.5278 261° West 149 171 5,900 -60 Descending Memphis Center
03:03PM 35.4622 -87.5875 261° West 149 171 5,900  Level Memphis Center
03:04PM 35.4558 -87.6383 261° West 149 171 5,900  Level Memphis Center
03:05PM 35.4486 -87.6889 260° West 149 171 5,900  Level Memphis Center
03:06PM 35.4422 -87.7400 261° West 150 173 5,900  Level Memphis Center
03:07PM 35.4356 -87.7919 261° West 150 173 5,900  Level Memphis Center
03:08PM 35.4281 -87.8431 260° West 150 173 5,900  Level Memphis Center
03:09PM 35.4214 -87.8928 261° West 150 173 6,000  Climbing Memphis Center
03:10PM 35.4131 -87.9519 260° West 150 173 6,000  Level Memphis Center
03:11PM 35.4069 -88.0039 262° West 150 173 6,000  Level Memphis Center
03:12PM 35.3989 -88.0550 259° West 150 173 6,000  Level Memphis Center
03:13PM 35.3922 -88.1047 261° West 150 173 6,000  Level Memphis Center
03:14PM 35.3853 -88.1556 261° West 150 173 6,000  Level Memphis Center
03:15PM 35.3783 -88.2056 260° West 150 173 6,000  Level Memphis Center
03:16PM 35.3714 -88.2547 260° West 150 173 6,000  Level Memphis Center
03:17PM 35.3631 -88.3131 260° West 150 173 6,000  Level Memphis Center
03:18PM 35.3553 -88.3622 259° West 150 173 6,000  Level Memphis Center
03:19PM 35.3483 -88.4114 260° West 150 173 6,000  Level Memphis Center
03:20PM 35.3419 -88.4622 261° West 150 173 6,000  Level Memphis Center
03:21PM 35.3353 -88.5139 261° West 149 171 6,000  Level Memphis Center
03:22PM 35.3281 -88.5633 260° West 149 171 6,000  Level Memphis Center
03:23PM 35.3203 -88.6139 259° West 149 171 6,000  Level Memphis Center
03:24PM 35.3119 -88.6719 260° West 149 171 6,000  Level Memphis Center
03:25PM 35.3056 -88.7217 261° West 149 171 6,000  Level Memphis Center
03:26PM 35.2983 -88.7714 260° West 149 171 6,000  Level Memphis Center
03:27PM 35.2914 -88.8208 260° West 149 171 6,000  Level Memphis Center
03:29PM 35.2844 -88.8700 260° West 149 171 6,000  Level Memphis Center
03:30PM 35.2761 -88.9289 260° West 149 171 6,000  Level Memphis Center
03:31PM 35.2694 -88.9786 261° West 148 170 6,000 -240 Level Memphis Center
03:32PM 35.2617 -89.0289 259° West 148 170 5,600 -480 Descending Memphis Center
03:33PM 35.2533 -89.0842 260° West 159 183 5,100 -540 Descending Memphis Center
03:35PM 35.2351 -89.1744 256° West  Level FlightAware Approximate
03:42PM 35.2000 -89.3833 253° West  Level FlightAware Approximate
03:43PM 35.2077 -89.3944 270° West  Level Estimated
03:44PM 35.2077 -89.3944 253° West  Level Estimated
03:45PM 35.2077 -89.3944 130° Southeast  Level Estimated
03:46PM 35.2077 -89.3944 253° West  Level Estimated
03:47PM 35.2077 -89.3944 130° Southeast  Level Estimated
03:48PM 35.2077 -89.3944 253° West  Level Estimated